createdAt,value
2022-11-26T00:01:40.425Z,94861.56
2022-11-26T00:04:09.343Z,94865.06
2022-11-26T00:06:37.980Z,94873.22
2022-11-26T00:09:05.949Z,94868.88
2022-11-26T00:11:34.027Z,94876.22
2022-11-26T00:14:01.658Z,94870.78
2022-11-26T00:16:29.426Z,94873.50
2022-11-26T00:18:57.156Z,94868.88
2022-11-26T00:21:26.896Z,94873.50
2022-11-26T00:23:54.486Z,94871.59
2022-11-26T00:26:23.030Z,94867.22
2022-11-26T00:28:51.976Z,94876.22
2022-11-26T00:31:19.965Z,94876.47
2022-11-26T00:33:47.633Z,94876.47
2022-11-26T00:36:18.161Z,94879.19
2022-11-26T00:38:47.508Z,94880.81
2022-11-26T00:41:16.839Z,94884.63
2022-11-26T00:43:44.977Z,94889.25
2022-11-26T00:46:14.067Z,94892.75
2022-11-26T00:48:41.835Z,94897.41
2022-11-26T00:51:11.564Z,94893.84
2022-11-26T00:53:39.132Z,94893.84
2022-11-26T00:56:10.010Z,94893.00
2022-11-26T00:58:37.834Z,94892.19
2022-11-26T01:01:05.596Z,94896.00
2022-11-26T01:03:33.269Z,94905.78
2022-11-26T01:06:00.828Z,94908.50
2022-11-26T01:08:30.152Z,94907.09
2022-11-26T01:10:58.009Z,94917.47
2022-11-26T01:13:27.001Z,94915.00
2022-11-26T01:15:55.062Z,94918.53
2022-11-26T01:18:22.793Z,94920.44
2022-11-26T01:20:50.589Z,94918.81
2022-11-26T01:23:19.077Z,94918.81
2022-11-26T01:25:46.715Z,94923.16
2022-11-26T01:28:15.189Z,94917.16
2022-11-26T01:30:44.132Z,94925.31
2022-11-26T01:33:11.761Z,94933.47
2022-11-26T01:35:39.312Z,94924.50
2022-11-26T01:38:06.889Z,94929.13
2022-11-26T01:40:43.129Z,94933.72
2022-11-26T01:43:13.708Z,94941.88
2022-11-26T01:45:41.625Z,94940.22
2022-11-26T01:48:26.407Z,94949.22
2022-11-26T01:50:57.301Z,94945.66
2022-11-26T01:53:30.428Z,94941.31
2022-11-26T01:56:00.378Z,94943.78
2022-11-26T01:58:30.028Z,94947.53
2022-11-26T02:00:57.626Z,94951.09
2022-11-26T02:03:26.567Z,94941.31
2022-11-26T02:05:56.359Z,94941.53
2022-11-26T02:08:24.264Z,94952.16
2022-11-26T02:10:52.315Z,94954.03
2022-11-26T02:13:19.891Z,94950.53
2022-11-26T02:15:50.311Z,94944.25
2022-11-26T02:18:17.868Z,94942.38
2022-11-26T02:20:51.527Z,94949.69
2022-11-26T02:23:42.516Z,94945.34
2022-11-26T02:26:30.779Z,94948.06
2022-11-26T02:29:15.811Z,94940.75
2022-11-26T02:31:46.385Z,94941.53
2022-11-26T02:34:16.362Z,94946.16
2022-11-26T02:36:49.175Z,94946.16
2022-11-26T02:39:18.783Z,94948.31
2022-11-26T02:41:46.871Z,94957.03
2022-11-26T02:44:15.004Z,94962.72
2022-11-26T02:46:43.972Z,94958.34
2022-11-26T02:49:11.689Z,94965.44
2022-11-26T02:51:39.277Z,94967.34
2022-11-26T02:54:07.125Z,94971.13
2022-11-26T02:56:34.810Z,94980.09
2022-11-26T02:59:02.437Z,94973.00
2022-11-26T03:01:31.766Z,94972.19
2022-11-26T03:04:02.704Z,94979.28
2022-11-26T03:06:32.142Z,94983.88
2022-11-26T03:08:59.729Z,94981.16
2022-11-26T03:11:27.348Z,94980.31
2022-11-26T03:13:55.063Z,94976.81
2022-11-26T03:16:22.705Z,94982.25
2022-11-26T03:18:50.369Z,94983.31
2022-11-26T03:21:19.292Z,94979.53
2022-11-26T03:23:46.855Z,94976.25
2022-11-26T03:26:14.506Z,94982.47
2022-11-26T03:28:42.068Z,94979.75
2022-11-26T03:31:09.714Z,94978.97
2022-11-26T03:33:37.292Z,94973.53
2022-11-26T03:36:05.175Z,94964.53
2022-11-26T03:38:34.082Z,94971.88
2022-11-26T03:41:02.963Z,94981.13
2022-11-26T03:43:30.522Z,94992.78
2022-11-26T03:45:58.228Z,94997.41
2022-11-26T03:48:25.941Z,95000.13
2022-11-26T03:50:53.641Z,95006.63
2022-11-26T03:53:21.331Z,95007.44
2022-11-26T03:55:50.361Z,95010.16
2022-11-26T03:58:17.913Z,95016.66
2022-11-26T04:00:45.537Z,95020.22
2022-11-26T04:03:13.120Z,95017.50
2022-11-26T04:05:40.750Z,95015.81
2022-11-26T04:08:08.353Z,95017.72
2022-11-26T04:10:36.055Z,95022.09
2022-11-26T04:13:05.019Z,95031.31
2022-11-26T04:15:32.873Z,95028.59
2022-11-26T04:18:00.563Z,95035.91
2022-11-26T04:20:28.168Z,95042.41
2022-11-26T04:22:55.831Z,95047.03
2022-11-26T04:25:23.439Z,95038.63
2022-11-26T04:27:50.999Z,95049.75
2022-11-26T04:30:20.073Z,95045.13
2022-11-26T04:32:47.629Z,95050.56
2022-11-26T04:35:15.178Z,95045.41
2022-11-26T04:37:43.021Z,95051.63
2022-11-26T04:40:11.976Z,95051.63
2022-11-26T04:42:39.567Z,95059.78
2022-11-26T04:45:08.144Z,95061.69
2022-11-26T04:47:42.620Z,95065.50
2022-11-26T04:50:11.393Z,95071.72
2022-11-26T04:52:38.918Z,95069.00
2022-11-26T04:55:07.031Z,95074.44
2022-11-26T04:57:34.639Z,95070.09
2022-11-26T05:00:02.212Z,95073.63
2022-11-26T05:02:29.851Z,95079.31
2022-11-26T05:04:58.907Z,95077.44
2022-11-26T05:07:26.550Z,95080.94
2022-11-26T05:09:54.395Z,95082.03
2022-11-26T05:12:22.076Z,95080.13
2022-11-26T05:14:49.731Z,95087.44
2022-11-26T05:17:17.289Z,95096.44
2022-11-26T05:19:44.886Z,95099.16
2022-11-26T05:22:13.899Z,95104.81
2022-11-26T05:24:41.457Z,95109.19
2022-11-26T05:27:09.123Z,95114.59
2022-11-26T05:29:36.719Z,95110.00
2022-11-26T05:32:04.533Z,95122.75
2022-11-26T05:34:32.480Z,95108.34
2022-11-26T05:37:00.100Z,95121.91
2022-11-26T05:39:29.263Z,95130.06
2022-11-26T05:41:56.834Z,95127.34
2022-11-26T05:44:24.398Z,95121.13
2022-11-26T05:46:51.955Z,95131.13
2022-11-26T05:49:19.523Z,95119.19
2022-11-26T05:51:47.112Z,95123.00
2022-11-26T05:54:14.890Z,95116.75
2022-11-26T05:56:44.212Z,95125.72
2022-11-26T05:59:11.964Z,95119.47
2022-11-26T06:01:39.522Z,95115.13
2022-11-26T06:04:07.111Z,95115.91
2022-11-26T06:06:34.669Z,95120.53
2022-11-26T06:09:02.292Z,95115.13
2022-11-26T06:11:29.832Z,95123.25
2022-11-26T06:13:58.755Z,95125.97
2022-11-26T06:16:26.699Z,95128.69
2022-11-26T06:18:54.348Z,95136.00
2022-11-26T06:21:21.877Z,95146.88
2022-11-26T06:23:55.965Z,95141.44
2022-11-26T06:26:26.613Z,95151.50
2022-11-26T06:28:54.178Z,95159.63
2022-11-26T06:31:23.162Z,95160.44
2022-11-26T06:33:54.331Z,95162.34
2022-11-26T06:36:21.944Z,95166.13
2022-11-26T06:38:49.535Z,95172.38
2022-11-26T06:41:17.222Z,95166.94
2022-11-26T06:43:44.811Z,95174.28
2022-11-26T06:46:12.756Z,95171.56
2022-11-26T06:48:41.664Z,95171.56
2022-11-26T06:51:10.124Z,95167.22
2022-11-26T06:53:37.708Z,95171.56
2022-11-26T06:56:06.368Z,95169.94
2022-11-26T06:58:33.993Z,95172.63
2022-11-26T07:01:01.671Z,95181.59
2022-11-26T07:03:33.237Z,95182.66
2022-11-26T07:06:02.466Z,95181.81
2022-11-26T07:08:30.246Z,95179.94
2022-11-26T07:10:57.916Z,95184.31
2022-11-26T07:13:25.504Z,95184.53
2022-11-26T07:15:53.126Z,95187.25
2022-11-26T07:18:20.808Z,95191.66
2022-11-26T07:20:48.414Z,95196.25
2022-11-26T07:23:17.461Z,95191.66
2022-11-26T07:25:45.116Z,95193.53
2022-11-26T07:28:12.774Z,95199.78
2022-11-26T07:30:40.471Z,95203.31
2022-11-26T07:33:08.096Z,95203.31
2022-11-26T07:35:35.680Z,95212.31
2022-11-26T07:38:03.356Z,95214.19
2022-11-26T07:40:32.293Z,95213.38
2022-11-26T07:43:00.441Z,95218.81
2022-11-26T07:45:28.059Z,95209.81
2022-11-26T07:47:55.646Z,95207.94
2022-11-26T07:50:23.241Z,95221.53
2022-11-26T07:52:52.772Z,95220.69
2022-11-26T07:55:20.426Z,95218.81
2022-11-26T07:57:49.451Z,95222.31
2022-11-26T08:00:18.322Z,95211.22
2022-11-26T08:02:46.019Z,95213.94
2022-11-26T08:05:13.721Z,95220.19
2022-11-26T08:07:41.327Z,95222.09
2022-11-26T08:10:09.757Z,95222.91
2022-11-26T08:12:37.632Z,95230.25
2022-11-26T08:15:07.601Z,95224.81
2022-11-26T08:17:35.233Z,95225.63
2022-11-26T08:20:02.827Z,95222.09
2022-11-26T08:22:30.612Z,95227.53
2022-11-26T08:24:58.256Z,95229.53
2022-11-26T08:27:26.015Z,95230.38
2022-11-26T08:29:53.625Z,95235.41
2022-11-26T08:32:22.636Z,95239.84
2022-11-26T08:34:50.212Z,95241.25
2022-11-26T08:37:17.798Z,95241.25
2022-11-26T08:39:45.453Z,95245.63
2022-11-26T08:42:13.108Z,95242.63
2022-11-26T08:44:40.953Z,95248.06
2022-11-26T08:47:08.779Z,95243.72
2022-11-26T08:49:37.773Z,95258.13
2022-11-26T08:52:05.844Z,95256.22
2022-11-26T08:54:33.580Z,95255.41
2022-11-26T08:57:01.188Z,95260.84
2022-11-26T08:59:28.799Z,95260.56
2022-11-26T09:01:56.446Z,95259.78
2022-11-26T09:04:24.115Z,95269.78
2022-11-26T09:06:53.098Z,95275.22
2022-11-26T09:09:20.744Z,95277.94
2022-11-26T09:11:49.361Z,95284.44
2022-11-26T09:14:17.932Z,95287.41
2022-11-26T09:16:45.763Z,95283.88
2022-11-26T09:19:14.087Z,95288.22
2022-11-26T09:21:41.780Z,95283.38
2022-11-26T09:24:10.753Z,95285.28
2022-11-26T09:26:38.339Z,95294.84
2022-11-26T09:29:06.155Z,95294.22
2022-11-26T09:31:33.800Z,95292.00
2022-11-26T09:34:02.332Z,95294.72
2022-11-26T09:36:29.916Z,95291.19
2022-11-26T09:38:57.687Z,95293.09
2022-11-26T09:41:34.088Z,95299.34
2022-11-26T09:44:20.862Z,95295.56
2022-11-26T09:47:10.913Z,95302.63
2022-11-26T09:49:40.579Z,95305.69
2022-11-26T09:52:08.479Z,95300.84
2022-11-26T09:54:36.419Z,95307.06
2022-11-26T09:57:10.252Z,95297.88
2022-11-26T09:59:37.988Z,95297.63
2022-11-26T10:02:11.519Z,95296.78
2022-11-26T10:04:40.846Z,95290.91
2022-11-26T10:07:12.236Z,95290.06
2022-11-26T10:09:49.979Z,95293.34
2022-11-26T10:12:26.546Z,95293.91
2022-11-26T10:14:57.264Z,95292.03
2022-11-26T10:17:36.974Z,95287.41
2022-11-26T10:20:40.516Z,95290.75
2022-11-26T10:23:12.233Z,95293.47
2022-11-26T10:25:42.480Z,95284.22
2022-11-26T10:28:16.316Z,95292.38
2022-11-26T10:30:43.916Z,95295.91
2022-11-26T10:33:13.107Z,95292.38
2022-11-26T10:35:40.654Z,95291.31
2022-11-26T10:38:09.530Z,95287.53
2022-11-26T10:40:37.349Z,95279.38
2022-11-26T10:43:13.114Z,95278.31
2022-11-26T10:45:43.306Z,95270.97
2022-11-26T10:48:21.029Z,95271.78
2022-11-26T10:51:02.822Z,95271.78
2022-11-26T10:53:31.998Z,95268.00
2022-11-26T10:56:00.146Z,95267.22
2022-11-26T10:58:28.174Z,95255.28
2022-11-26T11:00:59.005Z,95261.78
2022-11-26T11:03:59.771Z,95252.22
2022-11-26T11:06:28.059Z,95254.94
2022-11-26T11:08:55.676Z,95248.94
2022-11-26T11:11:24.177Z,95252.72
2022-11-26T11:13:51.835Z,95255.16
2022-11-26T11:16:26.245Z,95249.50
2022-11-26T11:18:56.060Z,95255.50
2022-11-26T11:21:30.385Z,95254.44
2022-11-26T11:24:09.069Z,95258.78
2022-11-26T11:26:41.160Z,95257.72
2022-11-26T11:29:24.049Z,95257.47
2022-11-26T11:31:53.156Z,95256.66
2022-11-26T11:34:21.480Z,95254.50
2022-11-26T11:36:59.284Z,95257.22
2022-11-26T11:39:30.336Z,95250.97
2022-11-26T11:41:58.854Z,95255.34
2022-11-26T11:44:27.676Z,95250.75
2022-11-26T11:47:06.978Z,95254.50
2022-11-26T11:49:44.547Z,95249.06
2022-11-26T11:52:16.909Z,95248.25
2022-11-26T11:54:49.577Z,95251.78
2022-11-26T11:57:20.904Z,95251.78
2022-11-26T12:00:08.411Z,95249.06
2022-11-26T12:03:01.013Z,95252.63
2022-11-26T12:05:48.681Z,95249.06
2022-11-26T12:08:25.323Z,95250.75
2022-11-26T12:10:57.831Z,95245.31
2022-11-26T12:13:25.385Z,95263.50
2022-11-26T12:15:53.842Z,95256.75
2022-11-26T12:18:24.446Z,95249.66
2022-11-26T12:20:53.342Z,95258.63
2022-11-26T12:23:27.360Z,95258.63
2022-11-26T12:25:57.419Z,95256.75
2022-11-26T12:28:26.413Z,95263.25
2022-11-26T12:30:55.918Z,95255.09
2022-11-26T12:33:27.803Z,95268.41
2022-11-26T12:35:56.554Z,95269.50
2022-11-26T12:38:26.339Z,95264.06
2022-11-26T12:40:57.956Z,95266.53
2022-11-26T12:43:28.093Z,95269.25
2022-11-26T12:45:57.615Z,95270.34
2022-11-26T12:48:32.688Z,95265.69
2022-11-26T12:51:02.332Z,95276.56
2022-11-26T12:53:35.092Z,95272.22
2022-11-26T12:56:06.923Z,95271.13
2022-11-26T12:58:40.460Z,95275.75
2022-11-26T13:01:09.562Z,95274.13
2022-11-26T13:03:38.549Z,95275.75
2022-11-26T13:06:09.662Z,95280.34
2022-11-26T13:08:42.462Z,95282.28
2022-11-26T13:11:17.944Z,95276.56
2022-11-26T13:13:49.200Z,95280.34
2022-11-26T13:16:21.975Z,95274.94
2022-11-26T13:18:51.868Z,95273.78
2022-11-26T13:21:28.608Z,95263.16
2022-11-26T13:24:05.117Z,95262.56
2022-11-26T13:26:49.385Z,95248.44
2022-11-26T13:29:39.244Z,95254.94
2022-11-26T13:32:19.728Z,95254.94
2022-11-26T13:35:01.699Z,95252.44
2022-11-26T13:37:39.288Z,95249.16
2022-11-26T13:40:37.828Z,95250.81
2022-11-26T13:43:25.435Z,95253.78
2022-11-26T13:46:06.469Z,95254.81
2022-11-26T13:48:38.040Z,95253.19
2022-11-26T13:51:08.462Z,95255.91
2022-11-26T13:53:37.613Z,95260.75
2022-11-26T13:56:06.535Z,95261.59
2022-11-26T13:58:36.019Z,95254.53
2022-11-26T14:01:28.878Z,95255.31
2022-11-26T14:03:56.760Z,95251.53
2022-11-26T14:06:27.892Z,95253.44
2022-11-26T14:08:55.433Z,95244.81
2022-11-26T14:11:56.775Z,95242.91
2022-11-26T14:14:34.532Z,95247.00
2022-11-26T14:17:19.561Z,95250.56
2022-11-26T14:20:03.883Z,95244.81
2022-11-26T14:22:33.635Z,95241.00
2022-11-26T14:25:02.601Z,95226.50
2022-11-26T14:27:32.299Z,95238.78
2022-11-26T14:30:19.486Z,95238.28
2022-11-26T14:32:49.335Z,95235.50
2022-11-26T14:35:19.514Z,95245.34
2022-11-26T14:37:53.527Z,95250.56
2022-11-26T14:40:23.526Z,95247.59
2022-11-26T14:43:06.945Z,95240.53
2022-11-26T14:45:34.529Z,95251.97
2022-11-26T14:48:02.184Z,95253.84
2022-11-26T14:50:30.856Z,95261.75
2022-11-26T14:53:00.686Z,95262.81
2022-11-26T14:55:30.233Z,95266.13
2022-11-26T14:57:58.630Z,95265.03
2022-11-26T15:00:27.164Z,95263.97
2022-11-26T15:02:55.050Z,95259.94
2022-11-26T15:05:24.254Z,95257.53
2022-11-26T15:08:00.056Z,95262.25
2022-11-26T15:10:29.064Z,95256.91
2022-11-26T15:13:02.319Z,95263.72
2022-11-26T15:15:29.953Z,95252.38
2022-11-26T15:17:58.856Z,95256.75
2022-11-26T15:20:26.487Z,95263.00
2022-11-26T15:22:54.712Z,95254.84
2022-11-26T15:25:26.111Z,95262.75
2022-11-26T15:27:56.034Z,95271.97
2022-11-26T15:30:24.763Z,95261.91
2022-11-26T15:32:57.668Z,95269.00
2022-11-26T15:35:25.240Z,95275.25
2022-11-26T15:37:52.804Z,95271.47
2022-11-26T15:40:23.604Z,95267.34
2022-11-26T15:42:52.826Z,95258.38
2022-11-26T15:45:21.529Z,95262.41
2022-11-26T15:47:49.666Z,95264.72
2022-11-26T15:50:23.059Z,95261.94
2022-11-26T15:52:50.776Z,95254.25
2022-11-26T15:55:20.894Z,95255.59
2022-11-26T15:57:50.936Z,95261.25
2022-11-26T16:00:22.551Z,95270.47
2022-11-26T16:02:51.993Z,95259.03
2022-11-26T16:05:24.185Z,95270.13
2022-11-26T16:07:59.499Z,95268.50
2022-11-26T16:10:28.144Z,95266.59
2022-11-26T16:13:19.645Z,95262.25
2022-11-26T16:15:59.023Z,95268.72
2022-11-26T16:18:29.578Z,95274.41
2022-11-26T16:21:04.771Z,95265.69
2022-11-26T16:23:32.438Z,95262.13
2022-11-26T16:26:11.448Z,95259.44
2022-11-26T16:28:40.418Z,95260.00
2022-11-26T16:31:08.061Z,95261.66
2022-11-26T16:33:35.725Z,95251.38
2022-11-26T16:36:03.336Z,95250.88
2022-11-26T16:38:30.902Z,95246.59
2022-11-26T16:40:58.510Z,95243.38
2022-11-26T16:43:26.109Z,95248.34
2022-11-26T16:45:55.690Z,95245.63
2022-11-26T16:48:24.670Z,95247.28
2022-11-26T16:50:52.631Z,95248.94
2022-11-26T16:53:20.152Z,95250.00
2022-11-26T16:55:49.647Z,95248.09
2022-11-26T16:58:26.951Z,95247.50
2022-11-26T17:00:56.235Z,95252.94
2022-11-26T17:03:23.985Z,95246.69
2022-11-26T17:05:52.289Z,95245.88
2022-11-26T17:08:19.839Z,95242.31
2022-11-26T17:10:47.915Z,95248.00
2022-11-26T17:13:15.526Z,95243.31
2022-11-26T17:15:43.319Z,95248.19
2022-11-26T17:18:18.851Z,95243.25
2022-11-26T17:20:46.415Z,95247.84
2022-11-26T17:23:13.983Z,95255.97
2022-11-26T17:25:41.615Z,95247.84
2022-11-26T17:28:11.649Z,95247.59
2022-11-26T17:30:39.603Z,95248.41
2022-11-26T17:33:07.348Z,95248.19
2022-11-26T17:35:36.336Z,95244.97
2022-11-26T17:38:03.922Z,95240.09
2022-11-26T17:40:31.548Z,95240.44
2022-11-26T17:42:59.200Z,95236.41
2022-11-26T17:45:26.787Z,95230.47
2022-11-26T17:47:54.336Z,95234.59
2022-11-26T17:50:23.207Z,95243.91
2022-11-26T17:52:52.534Z,95235.47
2022-11-26T17:55:20.438Z,95228.50
2022-11-26T17:57:47.988Z,95236.16
2022-11-26T18:00:17.543Z,95236.72
2022-11-26T18:02:46.207Z,95229.66
2022-11-26T18:05:13.891Z,95235.91
2022-11-26T18:07:41.470Z,95235.91
2022-11-26T18:10:11.715Z,95247.34
2022-11-26T18:12:39.533Z,95246.53
2022-11-26T18:15:07.718Z,95245.44
2022-11-26T18:17:35.271Z,95245.22
2022-11-26T18:20:02.848Z,95252.06
2022-11-26T18:22:30.569Z,95252.34
2022-11-26T18:24:58.247Z,95247.25
2022-11-26T18:27:29.107Z,95253.03
2022-11-26T18:29:56.696Z,95244.63
2022-11-26T18:32:24.288Z,95255.00
2022-11-26T18:34:51.910Z,95251.19
2022-11-26T18:37:19.578Z,95251.53
2022-11-26T18:39:47.154Z,95257.53
2022-11-26T18:42:36.107Z,95257.31
2022-11-26T18:45:03.684Z,95253.50
2022-11-26T18:47:31.312Z,95247.59
2022-11-26T18:49:58.974Z,95252.75
2022-11-26T18:52:26.560Z,95254.41
2022-11-26T18:54:54.110Z,95249.56
2022-11-26T18:57:21.664Z,95258.53
2022-11-26T18:59:50.416Z,95249.31
2022-11-26T19:02:19.453Z,95252.59
2022-11-26T19:04:47.153Z,95256.38
2022-11-26T19:07:15.555Z,95255.06
2022-11-26T19:09:43.476Z,95255.06
2022-11-26T19:12:11.232Z,95263.00
2022-11-26T19:14:38.776Z,95257.28
2022-11-26T19:17:06.420Z,95259.75
2022-11-26T19:19:35.847Z,95265.75
2022-11-26T19:22:03.379Z,95250.25
2022-11-26T19:24:31.055Z,95263.38
2022-11-26T19:26:58.664Z,95252.50
2022-11-26T19:29:26.393Z,95254.13
2022-11-26T19:31:53.943Z,95253.31
2022-11-26T19:34:21.500Z,95243.25
2022-11-26T19:36:53.151Z,95239.47
2022-11-26T19:39:20.786Z,95243.56
2022-11-26T19:41:48.363Z,95239.78
2022-11-26T19:44:15.922Z,95246.88
2022-11-26T19:46:43.492Z,95247.69
2022-11-26T19:49:11.894Z,95240.34
2022-11-26T19:51:39.484Z,95243.88
2022-11-26T19:54:08.468Z,95240.09
2022-11-26T19:56:36.378Z,95232.75
2022-11-26T19:59:04.104Z,95232.50
2022-11-26T20:01:32.545Z,95226.00
2022-11-26T20:04:00.378Z,95235.81
2022-11-26T20:06:28.339Z,95230.38
2022-11-26T20:08:56.024Z,95229.28
2022-11-26T20:11:25.032Z,95233.91
2022-11-26T20:13:52.758Z,95230.09
2022-11-26T20:16:21.865Z,95228.22
2022-11-26T20:18:49.617Z,95229.03
2022-11-26T20:21:19.617Z,95220.63
2022-11-26T20:23:47.342Z,95219.78
2022-11-26T20:26:16.988Z,95216.50
2022-11-26T20:28:46.028Z,95211.06
2022-11-26T20:31:16.269Z,95220.28
2022-11-26T20:33:45.847Z,95214.06
2022-11-26T20:36:14.771Z,95206.97
2022-11-26T20:38:42.328Z,95196.34
2022-11-26T20:41:10.339Z,95201.78
2022-11-26T20:43:38.122Z,95198.22
2022-11-26T20:46:07.656Z,95188.16
2022-11-26T20:48:35.749Z,95196.91
2022-11-26T20:51:03.673Z,95195.25
2022-11-26T20:53:31.338Z,95195.00
2022-11-26T20:55:58.895Z,95187.09
2022-11-26T20:58:26.878Z,95186.03
2022-11-26T21:00:54.870Z,95183.28
2022-11-26T21:03:24.184Z,95181.66
2022-11-26T21:05:51.943Z,95175.13
2022-11-26T21:08:19.637Z,95178.09
2022-11-26T21:10:47.295Z,95175.13
2022-11-26T21:13:16.451Z,95178.69
2022-11-26T21:15:44.289Z,95175.97
2022-11-26T21:18:11.972Z,95178.69
2022-11-26T21:20:41.211Z,95181.41
2022-11-26T21:23:09.022Z,95177.84
2022-11-26T21:25:37.912Z,95182.72
2022-11-26T21:28:05.983Z,95187.59
2022-11-26T21:30:33.648Z,95184.31
2022-11-26T21:33:05.829Z,95183.72
2022-11-26T21:35:36.648Z,95185.88
2022-11-26T21:38:05.924Z,95190.53
2022-11-26T21:40:33.596Z,95169.00
2022-11-26T21:43:01.382Z,95178.28
2022-11-26T21:45:29.172Z,95166.59
2022-11-26T21:47:56.837Z,95161.97
2022-11-26T21:50:24.461Z,95152.44
2022-11-26T21:52:52.479Z,95157.06
2022-11-26T21:55:22.104Z,95148.34
2022-11-26T21:57:49.978Z,95148.84
2022-11-26T22:00:18.984Z,95142.84
2022-11-26T22:02:46.636Z,95145.00
2022-11-26T22:05:14.288Z,95149.03
2022-11-26T22:07:42.129Z,95148.19
2022-11-26T22:10:11.107Z,95160.41
2022-11-26T22:12:40.204Z,95160.66
2022-11-26T22:15:09.051Z,95159.03
2022-11-26T22:17:36.769Z,95155.75
2022-11-26T22:20:04.634Z,95164.13
2022-11-26T22:22:32.324Z,95161.69
2022-11-26T22:25:00.017Z,95166.28
2022-11-26T22:27:28.095Z,95168.44
2022-11-26T22:29:57.215Z,95174.91
2022-11-26T22:32:24.934Z,95177.88
2022-11-26T22:34:52.647Z,95180.03
2022-11-26T22:37:20.437Z,95174.84
2022-11-26T22:39:52.525Z,95185.72
2022-11-26T22:42:21.744Z,95189.50
2022-11-26T22:44:49.337Z,95183.50
2022-11-26T22:47:18.413Z,95190.84
2022-11-26T22:49:46.250Z,95186.47
2022-11-26T22:52:13.954Z,95188.59
2022-11-26T22:54:41.641Z,95197.81
2022-11-26T22:57:09.445Z,95193.47
2022-11-26T22:59:37.599Z,95191.03
2022-11-26T23:02:05.689Z,95185.81
2022-11-26T23:04:34.753Z,95188.53
2022-11-26T23:07:02.467Z,95190.44
2022-11-26T23:09:30.223Z,95192.34
2022-11-26T23:11:58.081Z,95186.34
2022-11-26T23:14:25.717Z,95175.47
2022-11-26T23:16:53.458Z,95169.19
2022-11-26T23:19:21.210Z,95158.59
2022-11-26T23:21:50.350Z,95161.53
2022-11-26T23:24:18.028Z,95163.19
2022-11-26T23:26:45.875Z,95157.19
2022-11-26T23:29:13.643Z,95157.19
2022-11-26T23:31:43.593Z,95159.34
2022-11-26T23:34:11.623Z,95157.44
2022-11-26T23:36:39.266Z,95157.44
2022-11-26T23:39:10.416Z,95150.34
2022-11-26T23:41:38.175Z,95147.63
2022-11-26T23:44:06.240Z,95141.41
2022-11-26T23:46:35.307Z,95138.69
2022-11-26T23:49:03.341Z,95132.41
2022-11-26T23:51:32.206Z,95136.19
2022-11-26T23:53:59.901Z,95132.69
2022-11-26T23:56:29.830Z,95138.09
2022-11-26T23:58:59.539Z,95138.09
